Terminal Aerodrome Forecast
Issued by NWS

Home | Current Version | Previous Version | Text Only | Print | Product List | Glossary On
Versions: 1 2 3 4 5 6 7 8 9 10 11 12 13 14 15
000
FTUS46 KHNX 041124
TAFMCE
TAF
KMCE 041124Z 0412/0512 30005KT P6SM BKN150
     FM042200 33010KT P6SM SCT130 BKN200
     FM050700 30005KT P6SM SCT200=

USA.gov is the U.S. government's official web portal to all federal, state and local government web resources and services.